sensor_id;sensor_type;location;lat;lon;timestamp;temperature;humidity
16838;DHT22;19510;54.486;9.046;2023-12-22T00:01:59;6.30;99.90
16838;DHT22;19510;54.486;9.046;2023-12-22T00:04:28;6.30;99.90
16838;DHT22;19510;54.486;9.046;2023-12-22T00:06:54;6.30;99.90
16838;DHT22;19510;54.486;9.046;2023-12-22T00:09:24;6.30;99.90
16838;DHT22;19510;54.486;9.046;2023-12-22T00:11:50;6.30;99.90
16838;DHT22;19510;54.486;9.046;2023-12-22T00:14:17;6.30;99.90
16838;DHT22;19510;54.486;9.046;2023-12-22T00:16:45;6.30;99.90
16838;DHT22;19510;54.486;9.046;2023-12-22T00:19:13;6.40;99.90
16838;DHT22;19510;54.486;9.046;2023-12-22T00:21:40;6.40;99.90
16838;DHT22;19510;54.486;9.046;2023-12-22T00:24:06;6.40;99.90
16838;DHT22;19510;54.486;9.046;2023-12-22T00:26:32;6.40;99.90
16838;DHT22;19510;54.486;9.046;2023-12-22T00:28:58;6.30;99.90
16838;DHT22;19510;54.486;9.046;2023-12-22T00:31:25;6.30;99.90
16838;DHT22;19510;54.486;9.046;2023-12-22T00:33:52;6.40;99.90
16838;DHT22;19510;54.486;9.046;2023-12-22T00:36:21;6.40;99.90
16838;DHT22;19510;54.486;9.046;2023-12-22T00:38:50;6.40;99.90
16838;DHT22;19510;54.486;9.046;2023-12-22T00:41:17;6.40;99.90
16838;DHT22;19510;54.486;9.046;2023-12-22T00:43:43;6.40;99.90
16838;DHT22;19510;54.486;9.046;2023-12-22T00:46:08;6.40;99.90
16838;DHT22;19510;54.486;9.046;2023-12-22T00:48:34;6.40;99.90
16838;DHT22;19510;54.486;9.046;2023-12-22T00:51:00;6.50;99.90
16838;DHT22;19510;54.486;9.046;2023-12-22T00:53:26;6.50;99.90
16838;DHT22;19510;54.486;9.046;2023-12-22T00:55:52;6.40;99.90
16838;DHT22;19510;54.486;9.046;2023-12-22T00:58:18;6.40;99.90
16838;DHT22;19510;54.486;9.046;2023-12-22T01:00:43;6.40;99.90
16838;DHT22;19510;54.486;9.046;2023-12-22T01:03:09;6.50;99.90
16838;DHT22;19510;54.486;9.046;2023-12-22T01:05:40;6.50;99.90
16838;DHT22;19510;54.486;9.046;2023-12-22T01:08:06;6.40;99.90
16838;DHT22;19510;54.486;9.046;2023-12-22T01:10:32;6.30;99.90
16838;DHT22;19510;54.486;9.046;2023-12-22T01:12:57;6.10;99.90
16838;DHT22;19510;54.486;9.046;2023-12-22T01:15:23;5.90;99.90
16838;DHT22;19510;54.486;9.046;2023-12-22T01:17:49;5.70;99.90
16838;DHT22;19510;54.486;9.046;2023-12-22T01:20:18;5.70;99.90
16838;DHT22;19510;54.486;9.046;2023-12-22T01:22:44;5.50;99.90
16838;DHT22;19510;54.486;9.046;2023-12-22T01:25:09;5.40;99.90
16838;DHT22;19510;54.486;9.046;2023-12-22T01:27:35;5.40;99.90
16838;DHT22;19510;54.486;9.046;2023-12-22T01:30:01;5.40;99.90
16838;DHT22;19510;54.486;9.046;2023-12-22T01:32:26;5.40;99.90
16838;DHT22;19510;54.486;9.046;2023-12-22T01:34:58;5.40;99.90
16838;DHT22;19510;54.486;9.046;2023-12-22T01:37:25;5.40;99.90
16838;DHT22;19510;54.486;9.046;2023-12-22T01:39:51;5.40;99.90
16838;DHT22;19510;54.486;9.046;2023-12-22T01:42:16;5.40;99.90
16838;DHT22;19510;54.486;9.046;2023-12-22T01:44:42;5.30;99.90
16838;DHT22;19510;54.486;9.046;2023-12-22T01:47:08;5.30;99.90
16838;DHT22;19510;54.486;9.046;2023-12-22T01:49:33;5.30;99.90
16838;DHT22;19510;54.486;9.046;2023-12-22T01:51:59;5.40;99.90
16838;DHT22;19510;54.486;9.046;2023-12-22T01:54:25;5.40;99.90
16838;DHT22;19510;54.486;9.046;2023-12-22T01:56:51;5.20;99.90
16838;DHT22;19510;54.486;9.046;2023-12-22T01:59:17;4.80;99.90
16838;DHT22;19510;54.486;9.046;2023-12-22T02:01:43;4.60;99.90
16838;DHT22;19510;54.486;9.046;2023-12-22T02:04:11;4.30;99.90
16838;DHT22;19510;54.486;9.046;2023-12-22T02:06:37;4.20;99.90
16838;DHT22;19510;54.486;9.046;2023-12-22T02:09:03;4.10;99.90
16838;DHT22;19510;54.486;9.046;2023-12-22T02:11:29;4.00;99.90
16838;DHT22;19510;54.486;9.046;2023-12-22T02:13:55;4.00;99.90
16838;DHT22;19510;54.486;9.046;2023-12-22T02:18:53;4.00;99.90
16838;DHT22;19510;54.486;9.046;2023-12-22T02:21:20;4.00;99.90
16838;DHT22;19510;54.486;9.046;2023-12-22T02:23:49;4.00;99.90
16838;DHT22;19510;54.486;9.046;2023-12-22T02:26:36;4.10;99.90
16838;DHT22;19510;54.486;9.046;2023-12-22T02:29:08;4.20;99.90
16838;DHT22;19510;54.486;9.046;2023-12-22T02:31:41;4.30;99.90
16838;DHT22;19510;54.486;9.046;2023-12-22T02:34:13;4.40;99.90
16838;DHT22;19510;54.486;9.046;2023-12-22T02:36:40;4.50;99.90
16838;DHT22;19510;54.486;9.046;2023-12-22T02:39:07;4.60;99.90
16838;DHT22;19510;54.486;9.046;2023-12-22T02:41:33;4.60;99.90
16838;DHT22;19510;54.486;9.046;2023-12-22T02:44:00;4.70;99.90
16838;DHT22;19510;54.486;9.046;2023-12-22T02:46:26;4.90;99.90
16838;DHT22;19510;54.486;9.046;2023-12-22T02:48:51;5.00;99.90
16838;DHT22;19510;54.486;9.046;2023-12-22T02:51:17;5.10;99.90
16838;DHT22;19510;54.486;9.046;2023-12-22T02:53:43;5.20;99.90
16838;DHT22;19510;54.486;9.046;2023-12-22T02:56:08;5.20;99.90
16838;DHT22;19510;54.486;9.046;2023-12-22T02:58:34;5.20;99.90
16838;DHT22;19510;54.486;9.046;2023-12-22T03:01:00;5.40;99.90
16838;DHT22;19510;54.486;9.046;2023-12-22T03:03:25;5.30;99.90
16838;DHT22;19510;54.486;9.046;2023-12-22T03:05:51;5.40;99.90
16838;DHT22;19510;54.486;9.046;2023-12-22T03:08:17;5.40;99.90
16838;DHT22;19510;54.486;9.046;2023-12-22T03:10:42;5.50;99.90
16838;DHT22;19510;54.486;9.046;2023-12-22T03:13:08;5.50;99.90
16838;DHT22;19510;54.486;9.046;2023-12-22T03:15:34;5.40;99.90
16838;DHT22;19510;54.486;9.046;2023-12-22T03:17:59;5.30;99.90
16838;DHT22;19510;54.486;9.046;2023-12-22T03:20:25;5.20;99.90
16838;DHT22;19510;54.486;9.046;2023-12-22T03:22:51;4.90;99.90
16838;DHT22;19510;54.486;9.046;2023-12-22T03:25:16;4.70;99.90
16838;DHT22;19510;54.486;9.046;2023-12-22T03:27:42;4.60;99.90
16838;DHT22;19510;54.486;9.046;2023-12-22T03:30:08;4.50;99.90
16838;DHT22;19510;54.486;9.046;2023-12-22T03:32:34;4.40;99.90
16838;DHT22;19510;54.486;9.046;2023-12-22T03:34:59;4.40;99.90
16838;DHT22;19510;54.486;9.046;2023-12-22T03:37:25;4.50;99.90
16838;DHT22;19510;54.486;9.046;2023-12-22T03:39:51;4.60;99.90
16838;DHT22;19510;54.486;9.046;2023-12-22T03:42:16;4.70;99.90
16838;DHT22;19510;54.486;9.046;2023-12-22T03:44:42;4.80;99.90
16838;DHT22;19510;54.486;9.046;2023-12-22T03:47:08;4.70;99.90
16838;DHT22;19510;54.486;9.046;2023-12-22T03:49:33;4.50;99.90
16838;DHT22;19510;54.486;9.046;2023-12-22T03:51:59;4.50;99.90
16838;DHT22;19510;54.486;9.046;2023-12-22T03:54:25;4.50;99.90
16838;DHT22;19510;54.486;9.046;2023-12-22T03:56:50;4.50;99.90
16838;DHT22;19510;54.486;9.046;2023-12-22T03:59:16;4.60;99.90
16838;DHT22;19510;54.486;9.046;2023-12-22T04:01:44;4.70;99.90
16838;DHT22;19510;54.486;9.046;2023-12-22T04:04:10;4.80;99.90
16838;DHT22;19510;54.486;9.046;2023-12-22T04:06:39;4.50;99.90
16838;DHT22;19510;54.486;9.046;2023-12-22T04:09:06;4.30;99.90
16838;DHT22;19510;54.486;9.046;2023-12-22T04:11:32;4.10;99.90
16838;DHT22;19510;54.486;9.046;2023-12-22T04:14:00;3.90;99.90
16838;DHT22;19510;54.486;9.046;2023-12-22T04:16:29;3.80;99.90
16838;DHT22;19510;54.486;9.046;2023-12-22T04:18:55;3.90;99.90
16838;DHT22;19510;54.486;9.046;2023-12-22T04:21:23;3.80;99.90
16838;DHT22;19510;54.486;9.046;2023-12-22T04:23:49;4.00;99.90
16838;DHT22;19510;54.486;9.046;2023-12-22T04:26:14;4.10;99.90
16838;DHT22;19510;54.486;9.046;2023-12-22T04:28:40;4.20;99.90
16838;DHT22;19510;54.486;9.046;2023-12-22T04:31:06;4.30;99.90
16838;DHT22;19510;54.486;9.046;2023-12-22T04:33:31;4.40;99.90
16838;DHT22;19510;54.486;9.046;2023-12-22T04:35:57;4.50;99.90
16838;DHT22;19510;54.486;9.046;2023-12-22T04:38:23;4.50;99.90
16838;DHT22;19510;54.486;9.046;2023-12-22T04:40:48;4.60;99.90
16838;DHT22;19510;54.486;9.046;2023-12-22T04:43:14;4.60;99.90
16838;DHT22;19510;54.486;9.046;2023-12-22T04:45:40;4.60;99.90
16838;DHT22;19510;54.486;9.046;2023-12-22T04:48:06;4.60;99.90
16838;DHT22;19510;54.486;9.046;2023-12-22T04:50:32;4.70;99.90
16838;DHT22;19510;54.486;9.046;2023-12-22T04:52:59;4.70;99.90
16838;DHT22;19510;54.486;9.046;2023-12-22T04:55:25;4.80;99.90
16838;DHT22;19510;54.486;9.046;2023-12-22T04:57:51;4.90;99.90
16838;DHT22;19510;54.486;9.046;2023-12-22T05:00:17;4.90;99.90
16838;DHT22;19510;54.486;9.046;2023-12-22T05:02:45;4.80;99.90
16838;DHT22;19510;54.486;9.046;2023-12-22T05:05:11;4.80;99.90
16838;DHT22;19510;54.486;9.046;2023-12-22T05:07:37;4.90;99.90
16838;DHT22;19510;54.486;9.046;2023-12-22T05:10:03;5.00;99.90
16838;DHT22;19510;54.486;9.046;2023-12-22T05:12:29;4.90;99.90
16838;DHT22;19510;54.486;9.046;2023-12-22T05:14:54;5.00;99.90
16838;DHT22;19510;54.486;9.046;2023-12-22T05:17:20;5.00;99.90
16838;DHT22;19510;54.486;9.046;2023-12-22T05:19:46;5.10;99.90
16838;DHT22;19510;54.486;9.046;2023-12-22T05:22:11;5.20;99.90
16838;DHT22;19510;54.486;9.046;2023-12-22T05:24:37;5.20;99.90
16838;DHT22;19510;54.486;9.046;2023-12-22T05:27:04;5.40;99.90
16838;DHT22;19510;54.486;9.046;2023-12-22T05:29:29;5.40;99.90
16838;DHT22;19510;54.486;9.046;2023-12-22T05:31:55;5.40;99.90
16838;DHT22;19510;54.486;9.046;2023-12-22T05:34:21;5.40;99.90
16838;DHT22;19510;54.486;9.046;2023-12-22T05:36:46;5.40;99.90
16838;DHT22;19510;54.486;9.046;2023-12-22T05:39:12;5.50;99.90
16838;DHT22;19510;54.486;9.046;2023-12-22T05:41:38;5.50;99.90
16838;DHT22;19510;54.486;9.046;2023-12-22T05:44:04;5.50;99.90
16838;DHT22;19510;54.486;9.046;2023-12-22T05:46:37;5.40;99.90
16838;DHT22;19510;54.486;9.046;2023-12-22T05:49:04;5.50;99.90
16838;DHT22;19510;54.486;9.046;2023-12-22T05:51:39;5.40;99.90
16838;DHT22;19510;54.486;9.046;2023-12-22T05:54:09;5.20;99.90
16838;DHT22;19510;54.486;9.046;2023-12-22T05:56:36;5.10;99.90
16838;DHT22;19510;54.486;9.046;2023-12-22T05:59:01;4.90;99.90
16838;DHT22;19510;54.486;9.046;2023-12-22T06:01:28;4.70;99.90
16838;DHT22;19510;54.486;9.046;2023-12-22T06:03:54;4.70;99.90
16838;DHT22;19510;54.486;9.046;2023-12-22T06:06:20;4.80;99.90
16838;DHT22;19510;54.486;9.046;2023-12-22T06:08:46;4.70;99.90
16838;DHT22;19510;54.486;9.046;2023-12-22T06:11:12;4.70;99.90
16838;DHT22;19510;54.486;9.046;2023-12-22T06:13:38;4.80;99.90
16838;DHT22;19510;54.486;9.046;2023-12-22T06:16:03;4.80;99.90
16838;DHT22;19510;54.486;9.046;2023-12-22T06:18:29;4.80;99.90
16838;DHT22;19510;54.486;9.046;2023-12-22T06:20:55;4.80;99.90
16838;DHT22;19510;54.486;9.046;2023-12-22T06:23:20;4.80;99.90
16838;DHT22;19510;54.486;9.046;2023-12-22T06:25:46;4.80;99.90
16838;DHT22;19510;54.486;9.046;2023-12-22T06:28:12;4.80;99.90
16838;DHT22;19510;54.486;9.046;2023-12-22T06:30:38;4.80;99.90
16838;DHT22;19510;54.486;9.046;2023-12-22T06:33:04;4.70;99.90
16838;DHT22;19510;54.486;9.046;2023-12-22T06:35:29;4.70;99.90
16838;DHT22;19510;54.486;9.046;2023-12-22T06:37:57;4.70;99.90
16838;DHT22;19510;54.486;9.046;2023-12-22T06:40:26;4.60;99.90
16838;DHT22;19510;54.486;9.046;2023-12-22T06:42:52;4.60;99.90
16838;DHT22;19510;54.486;9.046;2023-12-22T06:45:18;4.50;99.90
16838;DHT22;19510;54.486;9.046;2023-12-22T06:47:43;4.40;99.90
16838;DHT22;19510;54.486;9.046;2023-12-22T06:50:09;4.40;99.90
16838;DHT22;19510;54.486;9.046;2023-12-22T06:52:35;4.40;99.90
16838;DHT22;19510;54.486;9.046;2023-12-22T06:55:00;4.50;99.90
16838;DHT22;19510;54.486;9.046;2023-12-22T06:57:26;4.50;99.90
16838;DHT22;19510;54.486;9.046;2023-12-22T06:59:52;4.60;99.90
16838;DHT22;19510;54.486;9.046;2023-12-22T07:02:18;4.50;99.90
16838;DHT22;19510;54.486;9.046;2023-12-22T07:07:37;4.40;99.90
16838;DHT22;19510;54.486;9.046;2023-12-22T07:10:03;4.40;99.90
16838;DHT22;19510;54.486;9.046;2023-12-22T07:12:31;4.40;99.90
16838;DHT22;19510;54.486;9.046;2023-12-22T07:14:56;4.40;99.90
16838;DHT22;19510;54.486;9.046;2023-12-22T07:17:24;4.50;99.90
16838;DHT22;19510;54.486;9.046;2023-12-22T07:19:50;4.60;99.90
16838;DHT22;19510;54.486;9.046;2023-12-22T07:22:17;4.70;99.90
16838;DHT22;19510;54.486;9.046;2023-12-22T07:24:43;4.80;99.90
16838;DHT22;19510;54.486;9.046;2023-12-22T07:27:08;4.80;99.90
16838;DHT22;19510;54.486;9.046;2023-12-22T07:29:34;4.80;99.90
16838;DHT22;19510;54.486;9.046;2023-12-22T07:32:00;4.90;99.90
16838;DHT22;19510;54.486;9.046;2023-12-22T07:34:25;4.90;99.90
16838;DHT22;19510;54.486;9.046;2023-12-22T07:36:51;4.90;99.90
16838;DHT22;19510;54.486;9.046;2023-12-22T07:39:18;5.00;99.90
16838;DHT22;19510;54.486;9.046;2023-12-22T07:41:44;5.00;99.90
16838;DHT22;19510;54.486;9.046;2023-12-22T07:44:09;4.80;99.90
16838;DHT22;19510;54.486;9.046;2023-12-22T07:46:35;4.60;99.90
16838;DHT22;19510;54.486;9.046;2023-12-22T07:49:01;4.30;99.90
16838;DHT22;19510;54.486;9.046;2023-12-22T07:51:26;4.30;99.90
16838;DHT22;19510;54.486;9.046;2023-12-22T07:53:52;4.50;99.90
16838;DHT22;19510;54.486;9.046;2023-12-22T07:56:18;4.50;99.90
16838;DHT22;19510;54.486;9.046;2023-12-22T07:58:52;4.50;99.90
16838;DHT22;19510;54.486;9.046;2023-12-22T08:02:08;4.60;99.90
16838;DHT22;19510;54.486;9.046;2023-12-22T08:05:03;4.70;99.90
16838;DHT22;19510;54.486;9.046;2023-12-22T08:07:57;4.80;99.90
16838;DHT22;19510;54.486;9.046;2023-12-22T08:24:09;5.10;99.90
16838;DHT22;19510;54.486;9.046;2023-12-22T08:26:36;5.00;99.90
16838;DHT22;19510;54.486;9.046;2023-12-22T08:29:05;4.60;99.90
16838;DHT22;19510;54.486;9.046;2023-12-22T08:31:31;4.30;99.90
16838;DHT22;19510;54.486;9.046;2023-12-22T08:33:57;4.00;99.90
16838;DHT22;19510;54.486;9.046;2023-12-22T08:36:22;4.00;99.90
16838;DHT22;19510;54.486;9.046;2023-12-22T08:38:48;3.90;99.90
16838;DHT22;19510;54.486;9.046;2023-12-22T08:41:14;4.00;99.90
16838;DHT22;19510;54.486;9.046;2023-12-22T08:43:40;4.00;99.90
16838;DHT22;19510;54.486;9.046;2023-12-22T08:46:06;4.10;99.90
16838;DHT22;19510;54.486;9.046;2023-12-22T08:48:31;4.20;99.90
16838;DHT22;19510;54.486;9.046;2023-12-22T08:50:57;4.30;99.90
16838;DHT22;19510;54.486;9.046;2023-12-22T08:53:25;4.40;99.90
16838;DHT22;19510;54.486;9.046;2023-12-22T08:55:51;4.50;99.90
16838;DHT22;19510;54.486;9.046;2023-12-22T08:58:17;4.60;99.90
16838;DHT22;19510;54.486;9.046;2023-12-22T09:00:43;4.70;99.90
16838;DHT22;19510;54.486;9.046;2023-12-22T09:03:09;4.80;99.90
16838;DHT22;19510;54.486;9.046;2023-12-22T09:05:35;4.80;99.90
16838;DHT22;19510;54.486;9.046;2023-12-22T09:08:01;4.70;99.90
16838;DHT22;19510;54.486;9.046;2023-12-22T09:10:26;4.60;99.90
16838;DHT22;19510;54.486;9.046;2023-12-22T09:12:52;4.60;99.90
16838;DHT22;19510;54.486;9.046;2023-12-22T09:15:18;4.50;99.90
16838;DHT22;19510;54.486;9.046;2023-12-22T09:17:44;4.50;99.90
16838;DHT22;19510;54.486;9.046;2023-12-22T09:20:11;4.40;99.90
16838;DHT22;19510;54.486;9.046;2023-12-22T09:22:37;4.50;99.90
16838;DHT22;19510;54.486;9.046;2023-12-22T09:25:03;4.50;99.90
16838;DHT22;19510;54.486;9.046;2023-12-22T09:27:29;4.50;99.90
16838;DHT22;19510;54.486;9.046;2023-12-22T09:29:56;4.60;99.90
16838;DHT22;19510;54.486;9.046;2023-12-22T09:32:22;4.70;99.90
16838;DHT22;19510;54.486;9.046;2023-12-22T09:34:47;4.70;99.90
16838;DHT22;19510;54.486;9.046;2023-12-22T09:37:14;4.80;99.90
16838;DHT22;19510;54.486;9.046;2023-12-22T09:39:40;4.90;99.90
16838;DHT22;19510;54.486;9.046;2023-12-22T09:42:05;5.00;99.90
16838;DHT22;19510;54.486;9.046;2023-12-22T09:44:32;5.10;99.90
16838;DHT22;19510;54.486;9.046;2023-12-22T09:47:03;5.20;99.90
16838;DHT22;19510;54.486;9.046;2023-12-22T09:49:30;5.20;99.90
16838;DHT22;19510;54.486;9.046;2023-12-22T09:51:57;5.20;99.90
16838;DHT22;19510;54.486;9.046;2023-12-22T09:54:23;5.30;99.90
16838;DHT22;19510;54.486;9.046;2023-12-22T09:56:50;5.20;99.90
16838;DHT22;19510;54.486;9.046;2023-12-22T09:59:22;5.10;99.90
16838;DHT22;19510;54.486;9.046;2023-12-22T10:01:51;5.00;99.90
16838;DHT22;19510;54.486;9.046;2023-12-22T10:04:18;4.90;99.90
16838;DHT22;19510;54.486;9.046;2023-12-22T10:06:44;4.80;99.90
16838;DHT22;19510;54.486;9.046;2023-12-22T10:09:13;4.80;99.90
16838;DHT22;19510;54.486;9.046;2023-12-22T10:11:41;4.80;99.90
16838;DHT22;19510;54.486;9.046;2023-12-22T10:14:09;4.80;99.90
16838;DHT22;19510;54.486;9.046;2023-12-22T10:16:36;4.70;99.90
16838;DHT22;19510;54.486;9.046;2023-12-22T10:19:03;4.80;99.90
16838;DHT22;19510;54.486;9.046;2023-12-22T10:21:29;4.70;99.90
16838;DHT22;19510;54.486;9.046;2023-12-22T10:23:57;4.70;99.90
16838;DHT22;19510;54.486;9.046;2023-12-22T10:26:23;4.60;99.90
16838;DHT22;19510;54.486;9.046;2023-12-22T10:28:48;4.50;99.90
16838;DHT22;19510;54.486;9.046;2023-12-22T10:31:14;4.50;99.90
16838;DHT22;19510;54.486;9.046;2023-12-22T10:33:40;4.60;99.90
16838;DHT22;19510;54.486;9.046;2023-12-22T10:36:08;4.70;99.90
16838;DHT22;19510;54.486;9.046;2023-12-22T10:38:34;4.80;99.90
16838;DHT22;19510;54.486;9.046;2023-12-22T10:41:03;4.90;99.90
16838;DHT22;19510;54.486;9.046;2023-12-22T10:43:29;5.00;99.90
16838;DHT22;19510;54.486;9.046;2023-12-22T10:45:55;4.80;99.90
16838;DHT22;19510;54.486;9.046;2023-12-22T10:48:24;4.50;99.90
16838;DHT22;19510;54.486;9.046;2023-12-22T10:50:50;4.40;99.90
16838;DHT22;19510;54.486;9.046;2023-12-22T10:53:15;4.30;99.90
16838;DHT22;19510;54.486;9.046;2023-12-22T10:55:41;4.30;99.90
16838;DHT22;19510;54.486;9.046;2023-12-22T10:58:08;4.50;99.90
16838;DHT22;19510;54.486;9.046;2023-12-22T11:00:39;4.60;99.90
16838;DHT22;19510;54.486;9.046;2023-12-22T11:03:08;4.70;99.90
16838;DHT22;19510;54.486;9.046;2023-12-22T11:05:43;4.90;99.90
16838;DHT22;19510;54.486;9.046;2023-12-22T11:08:11;5.00;99.90
16838;DHT22;19510;54.486;9.046;2023-12-22T11:10:41;5.10;99.90
16838;DHT22;19510;54.486;9.046;2023-12-22T11:13:09;5.20;99.90
16838;DHT22;19510;54.486;9.046;2023-12-22T11:15:36;5.30;99.90
16838;DHT22;19510;54.486;9.046;2023-12-22T11:18:05;5.30;99.90
16838;DHT22;19510;54.486;9.046;2023-12-22T11:20:33;5.30;99.90
16838;DHT22;19510;54.486;9.046;2023-12-22T11:23:01;5.30;99.90
16838;DHT22;19510;54.486;9.046;2023-12-22T11:25:28;5.30;99.90
16838;DHT22;19510;54.486;9.046;2023-12-22T11:27:55;5.30;99.90
16838;DHT22;19510;54.486;9.046;2023-12-22T11:30:22;5.30;99.90
16838;DHT22;19510;54.486;9.046;2023-12-22T11:32:50;5.30;99.90
16838;DHT22;19510;54.486;9.046;2023-12-22T11:35:16;5.30;99.90
16838;DHT22;19510;54.486;9.046;2023-12-22T11:37:44;5.40;99.90
16838;DHT22;19510;54.486;9.046;2023-12-22T11:40:12;5.30;99.90
16838;DHT22;19510;54.486;9.046;2023-12-22T11:42:45;5.40;99.90
16838;DHT22;19510;54.486;9.046;2023-12-22T11:45:12;5.50;99.90
16838;DHT22;19510;54.486;9.046;2023-12-22T11:47:42;5.50;99.90
16838;DHT22;19510;54.486;9.046;2023-12-22T11:50:11;5.60;99.90
16838;DHT22;19510;54.486;9.046;2023-12-22T11:52:37;5.70;99.90
16838;DHT22;19510;54.486;9.046;2023-12-22T11:55:07;5.70;99.90
16838;DHT22;19510;54.486;9.046;2023-12-22T11:57:55;5.70;99.90
16838;DHT22;19510;54.486;9.046;2023-12-22T12:02:55;5.80;99.90
16838;DHT22;19510;54.486;9.046;2023-12-22T12:05:24;5.90;99.90
16838;DHT22;19510;54.486;9.046;2023-12-22T12:07:49;5.90;99.90
16838;DHT22;19510;54.486;9.046;2023-12-22T12:10:51;5.90;99.90
16838;DHT22;19510;54.486;9.046;2023-12-22T12:13:22;5.90;99.90
16838;DHT22;19510;54.486;9.046;2023-12-22T12:15:50;6.00;99.90
16838;DHT22;19510;54.486;9.046;2023-12-22T12:18:21;6.00;99.90
16838;DHT22;19510;54.486;9.046;2023-12-22T12:20:48;5.90;99.90
16838;DHT22;19510;54.486;9.046;2023-12-22T12:23:15;5.90;99.90
16838;DHT22;19510;54.486;9.046;2023-12-22T12:25:42;5.80;99.90
16838;DHT22;19510;54.486;9.046;2023-12-22T12:28:08;5.80;99.90
16838;DHT22;19510;54.486;9.046;2023-12-22T12:30:36;5.70;99.90
16838;DHT22;19510;54.486;9.046;2023-12-22T12:33:09;5.70;99.90
16838;DHT22;19510;54.486;9.046;2023-12-22T12:35:37;5.60;99.90
16838;DHT22;19510;54.486;9.046;2023-12-22T12:38:03;5.60;99.90
16838;DHT22;19510;54.486;9.046;2023-12-22T12:40:29;5.70;99.90
16838;DHT22;19510;54.486;9.046;2023-12-22T12:42:56;5.60;99.90
16838;DHT22;19510;54.486;9.046;2023-12-22T12:48:02;5.70;99.90
16838;DHT22;19510;54.486;9.046;2023-12-22T12:50:30;5.70;99.90
16838;DHT22;19510;54.486;9.046;2023-12-22T12:52:59;5.70;99.90
16838;DHT22;19510;54.486;9.046;2023-12-22T12:55:25;5.70;99.90
16838;DHT22;19510;54.486;9.046;2023-12-22T12:57:55;5.70;99.90
16838;DHT22;19510;54.486;9.046;2023-12-22T13:00:28;5.70;99.90
16838;DHT22;19510;54.486;9.046;2023-12-22T13:03:00;5.70;99.90
16838;DHT22;19510;54.486;9.046;2023-12-22T13:05:28;5.70;99.90
16838;DHT22;19510;54.486;9.046;2023-12-22T13:08:12;5.60;99.90
16838;DHT22;19510;54.486;9.046;2023-12-22T13:10:39;5.70;99.90
16838;DHT22;19510;54.486;9.046;2023-12-22T13:13:05;5.70;99.90
16838;DHT22;19510;54.486;9.046;2023-12-22T13:15:31;5.70;99.90
16838;DHT22;19510;54.486;9.046;2023-12-22T13:17:57;5.70;99.90
16838;DHT22;19510;54.486;9.046;2023-12-22T13:20:23;5.80;99.90
16838;DHT22;19510;54.486;9.046;2023-12-22T13:22:49;5.80;99.90
16838;DHT22;19510;54.486;9.046;2023-12-22T13:25:15;5.70;99.90
16838;DHT22;19510;54.486;9.046;2023-12-22T13:27:48;5.70;99.90
16838;DHT22;19510;54.486;9.046;2023-12-22T13:30:15;5.70;99.90
16838;DHT22;19510;54.486;9.046;2023-12-22T13:32:41;5.70;99.90
16838;DHT22;19510;54.486;9.046;2023-12-22T13:35:07;5.70;99.90
16838;DHT22;19510;54.486;9.046;2023-12-22T13:37:33;5.70;99.90
16838;DHT22;19510;54.486;9.046;2023-12-22T13:39:58;5.70;99.90
16838;DHT22;19510;54.486;9.046;2023-12-22T13:42:25;5.70;99.90
16838;DHT22;19510;54.486;9.046;2023-12-22T13:44:51;5.70;99.90
16838;DHT22;19510;54.486;9.046;2023-12-22T13:47:19;5.60;99.90
16838;DHT22;19510;54.486;9.046;2023-12-22T13:49:45;5.60;99.90
16838;DHT22;19510;54.486;9.046;2023-12-22T13:52:30;5.60;99.90
16838;DHT22;19510;54.486;9.046;2023-12-22T13:55:01;5.60;99.90
16838;DHT22;19510;54.486;9.046;2023-12-22T13:57:28;5.50;99.90
16838;DHT22;19510;54.486;9.046;2023-12-22T13:59:54;5.50;99.90
16838;DHT22;19510;54.486;9.046;2023-12-22T14:02:23;5.50;99.90
16838;DHT22;19510;54.486;9.046;2023-12-22T14:04:52;5.50;99.90
16838;DHT22;19510;54.486;9.046;2023-12-22T14:07:18;5.50;99.90
16838;DHT22;19510;54.486;9.046;2023-12-22T14:09:44;5.40;99.90
16838;DHT22;19510;54.486;9.046;2023-12-22T14:12:09;5.40;99.90
16838;DHT22;19510;54.486;9.046;2023-12-22T14:14:35;5.50;99.90
16838;DHT22;19510;54.486;9.046;2023-12-22T14:17:01;5.40;99.90
16838;DHT22;19510;54.486;9.046;2023-12-22T14:19:27;5.40;99.90
16838;DHT22;19510;54.486;9.046;2023-12-22T14:21:52;5.40;99.90
16838;DHT22;19510;54.486;9.046;2023-12-22T14:24:18;5.40;99.90
16838;DHT22;19510;54.486;9.046;2023-12-22T14:26:54;5.40;99.90
16838;DHT22;19510;54.486;9.046;2023-12-22T14:29:22;5.30;99.90
16838;DHT22;19510;54.486;9.046;2023-12-22T14:31:52;5.30;99.90
16838;DHT22;19510;54.486;9.046;2023-12-22T14:34:20;5.20;99.90
16838;DHT22;19510;54.486;9.046;2023-12-22T14:36:46;5.30;99.90
16838;DHT22;19510;54.486;9.046;2023-12-22T14:39:12;5.30;99.90
16838;DHT22;19510;54.486;9.046;2023-12-22T14:41:42;5.40;99.90
16838;DHT22;19510;54.486;9.046;2023-12-22T14:44:09;5.40;99.90
16838;DHT22;19510;54.486;9.046;2023-12-22T14:46:39;5.40;99.90
16838;DHT22;19510;54.486;9.046;2023-12-22T14:49:07;5.30;99.90
16838;DHT22;19510;54.486;9.046;2023-12-22T14:51:37;5.30;99.90
16838;DHT22;19510;54.486;9.046;2023-12-22T14:54:04;5.40;99.90
16838;DHT22;19510;54.486;9.046;2023-12-22T14:56:37;5.30;99.90
16838;DHT22;19510;54.486;9.046;2023-12-22T14:59:03;5.30;99.90
16838;DHT22;19510;54.486;9.046;2023-12-22T15:01:29;5.30;99.90
16838;DHT22;19510;54.486;9.046;2023-12-22T15:03:59;5.30;99.90
16838;DHT22;19510;54.486;9.046;2023-12-22T15:06:25;5.30;99.90
16838;DHT22;19510;54.486;9.046;2023-12-22T15:08:50;5.30;99.90
16838;DHT22;19510;54.486;9.046;2023-12-22T15:11:17;5.70;99.90
16838;DHT22;19510;54.486;9.046;2023-12-22T15:13:43;5.90;99.90
16838;DHT22;19510;54.486;9.046;2023-12-22T15:16:09;6.30;99.90
16838;DHT22;19510;54.486;9.046;2023-12-22T15:18:35;6.50;99.90
16838;DHT22;19510;54.486;9.046;2023-12-22T15:21:01;6.70;99.90
16838;DHT22;19510;54.486;9.046;2023-12-22T15:31:27;6.00;99.90
16838;DHT22;19510;54.486;9.046;2023-12-22T15:45:03;5.40;99.90
16838;DHT22;19510;54.486;9.046;2023-12-22T15:48:09;5.30;99.90
16838;DHT22;19510;54.486;9.046;2023-12-22T15:51:11;5.30;99.90
16838;DHT22;19510;54.486;9.046;2023-12-22T15:53:38;5.20;99.90
16838;DHT22;19510;54.486;9.046;2023-12-22T15:56:09;5.20;99.90
16838;DHT22;19510;54.486;9.046;2023-12-22T15:58:37;5.20;99.90
16838;DHT22;19510;54.486;9.046;2023-12-22T16:01:04;5.20;99.90
16838;DHT22;19510;54.486;9.046;2023-12-22T16:03:30;5.20;99.90
16838;DHT22;19510;54.486;9.046;2023-12-22T16:05:55;5.20;99.90
16838;DHT22;19510;54.486;9.046;2023-12-22T16:08:22;5.20;99.90
16838;DHT22;19510;54.486;9.046;2023-12-22T16:10:54;5.20;99.90
16838;DHT22;19510;54.486;9.046;2023-12-22T16:13:23;5.20;99.90
16838;DHT22;19510;54.486;9.046;2023-12-22T16:15:50;5.10;99.90
16838;DHT22;19510;54.486;9.046;2023-12-22T16:18:20;5.20;99.90
16838;DHT22;19510;54.486;9.046;2023-12-22T16:21:00;5.10;99.90
16838;DHT22;19510;54.486;9.046;2023-12-22T16:23:27;5.10;99.90
16838;DHT22;19510;54.486;9.046;2023-12-22T16:26:00;4.80;99.90
16838;DHT22;19510;54.486;9.046;2023-12-22T16:28:36;4.60;99.90
16838;DHT22;19510;54.486;9.046;2023-12-22T16:31:02;4.50;99.90